Time;durP1;ratioP1;P1;durP2;ratioP2;P2;SDS_P1;SDS_P2;PMS_P1;PMS_P2;Temp;Humidity;BMP_temperature;BMP_pressure;BME280_temperature;BME280_humidity;BME280_pressure;Samples;Min_cycle;Max_cycle;Signal;HPM_P1;HPM_P2
2022/06/08 00:00:27;;;;;;;3.38;1.10;;;17.10;99.90;;;;;;5051604;28;20193;-78
2022/06/08 00:03:00;;;;;;;1.35;1.15;;;17.10;99.90;;;;;;5079382;28;20190;-78
2022/06/08 00:05:27;;;;;;;1.67;1.00;;;17.10;99.90;;;;;;5052728;28;20215;-77
2022/06/08 00:07:55;;;;;;;2.17;1.05;;;17.10;99.90;;;;;;5045166;28;20174;-78
2022/06/08 00:10:21;;;;;;;1.27;1.15;;;17.10;99.90;;;;;;5052927;28;20273;-78
2022/06/08 00:12:50;;;;;;;1.40;1.30;;;17.10;99.90;;;;;;5049428;28;20235;-77
2022/06/08 00:15:16;;;;;;;1.80;1.15;;;17.10;99.90;;;;;;5046136;28;20182;-78
2022/06/08 00:17:44;;;;;;;3.22;1.08;;;17.10;99.90;;;;;;5039162;28;20200;-76
2022/06/08 00:20:11;;;;;;;1.33;0.98;;;17.10;99.90;;;;;;5043437;28;20266;-77
2022/06/08 00:22:42;;;;;;;1.50;1.10;;;17.00;99.90;;;;;;5081935;28;20268;-76
2022/06/08 00:25:09;;;;;;;1.42;1.10;;;17.00;99.90;;;;;;5051209;28;20245;-77
2022/06/08 00:27:37;;;;;;;1.52;1.10;;;17.00;99.90;;;;;;5050216;28;20178;-77
2022/06/08 00:30:07;;;;;;;1.33;1.10;;;17.00;99.90;;;;;;5081017;28;20251;-76
2022/06/08 00:32:33;;;;;;;1.08;0.98;;;17.00;99.90;;;;;;5084896;28;20292;-75
2022/06/08 00:35:01;;;;;;;1.30;1.10;;;17.00;99.90;;;;;;5068917;28;20261;-77
2022/06/08 00:37:28;;;;;;;2.55;1.20;;;17.00;99.90;;;;;;5074283;28;20476;-76
2022/06/08 00:39:53;;;;;;;1.80;1.20;;;17.00;99.90;;;;;;5048865;28;20499;-76
2022/06/08 00:42:20;;;;;;;2.40;1.05;;;17.00;99.90;;;;;;5056486;28;20170;-77
2022/06/08 00:45:17;;;;;;;2.58;1.20;;;17.00;99.90;;;;;;5051965;28;20197;-77
2022/06/08 00:47:58;;;;;;;1.38;1.00;;;17.10;99.90;;;;;;5052677;28;20189;-76
2022/06/08 00:50:27;;;;;;;1.15;1.05;;;17.00;99.90;;;;;;5050737;28;20181;-77
2022/06/08 00:52:54;;;;;;;1.70;1.20;;;17.00;99.90;;;;;;5056011;28;20260;-75
2022/06/08 00:55:23;;;;;;;1.60;1.10;;;17.00;99.90;;;;;;5055955;28;20178;-75
2022/06/08 00:57:57;;;;;;;1.55;1.27;;;17.00;99.90;;;;;;5055599;28;20177;-76
2022/06/08 01:00:28;;;;;;;3.00;1.35;;;17.00;99.90;;;;;;5056195;28;20236;-76
2022/06/08 01:02:54;;;;;;;1.70;1.17;;;17.00;99.90;;;;;;5056129;28;20272;-76
2022/06/08 01:05:28;;;;;;;1.75;1.30;;;17.00;99.90;;;;;;5050051;28;20221;-74
2022/06/08 01:07:56;;;;;;;1.45;1.25;;;17.00;99.90;;;;;;5040547;28;20169;-76
2022/06/08 01:10:28;;;;;;;1.10;1.00;;;17.10;99.90;;;;;;5038458;28;20269;-75
2022/06/08 01:12:56;;;;;;;1.35;1.08;;;17.10;99.90;;;;;;5048013;28;20239;-76
2022/06/08 01:15:28;;;;;;;1.30;1.20;;;17.00;99.90;;;;;;5046547;28;20275;-75
2022/06/08 01:17:53;;;;;;;1.98;1.20;;;17.10;99.90;;;;;;5051886;28;20188;-76
2022/06/08 01:20:20;;;;;;;2.70;1.33;;;17.10;99.90;;;;;;5055581;28;20262;-76
2022/06/08 01:22:48;;;;;;;1.42;1.30;;;17.10;99.90;;;;;;5047260;28;20170;-76
2022/06/08 01:25:15;;;;;;;1.60;1.50;;;17.10;99.90;;;;;;5054650;28;20185;-74
2022/06/08 01:27:55;;;;;;;3.30;1.23;;;17.10;99.90;;;;;;5041605;28;20174;-76
2022/06/08 01:30:27;;;;;;;1.40;1.20;;;17.10;99.90;;;;;;5053721;28;20413;-76
2022/06/08 01:33:11;;;;;;;1.30;1.20;;;17.10;99.90;;;;;;5054154;28;20219;-76
2022/06/08 01:35:54;;;;;;;1.90;1.23;;;17.10;99.90;;;;;;5054283;28;20177;-77
2022/06/08 01:39:00;;;;;;;1.48;1.10;;;17.10;99.90;;;;;;5046384;28;20181;-76
2022/06/08 01:41:31;;;;;;;1.60;1.30;;;17.10;99.90;;;;;;5054625;28;20205;-76
2022/06/08 01:44:20;;;;;;;1.23;1.10;;;17.00;99.90;;;;;;5054895;28;20200;-77
2022/06/08 01:47:01;;;;;;;1.40;1.20;;;17.00;99.90;;;;;;5080382;28;20377;-76
2022/06/08 01:49:50;;;;;;;1.23;1.13;;;17.00;99.90;;;;;;5063513;28;20174;-77
2022/06/08 01:52:36;;;;;;;1.77;1.33;;;17.00;99.90;;;;;;5066120;28;20173;-76
2022/06/08 01:55:13;;;;;;;1.38;1.27;;;16.90;99.90;;;;;;5047343;28;20205;-76
2022/06/08 01:57:44;;;;;;;1.70;1.25;;;16.90;99.90;;;;;;5052088;28;20177;-76
2022/06/08 02:00:19;;;;;;;1.42;1.33;;;16.90;99.90;;;;;;5085886;28;20294;-77
2022/06/08 02:02:56;;;;;;;3.08;1.40;;;16.90;99.90;;;;;;5061562;28;20183;-76
2022/06/08 02:05:24;;;;;;;1.60;1.23;;;16.90;99.90;;;;;;5048268;28;20185;-76
2022/06/08 02:07:53;;;;;;;2.45;1.35;;;16.90;99.90;;;;;;5039472;28;20177;-76
2022/06/08 02:10:52;;;;;;;1.30;1.20;;;16.90;99.90;;;;;;5053393;28;20245;-77
2022/06/08 02:13:38;;;;;;;1.65;1.35;;;16.90;99.90;;;;;;5048237;28;20393;-76
2022/06/08 02:16:31;;;;;;;2.08;1.30;;;16.90;99.90;;;;;;5070016;28;20287;-75
2022/06/08 02:19:08;;;;;;;1.98;1.30;;;16.90;99.90;;;;;;5052878;28;20398;-76
2022/06/08 02:21:42;;;;;;;1.95;1.35;;;16.90;99.90;;;;;;5051873;28;20195;-76
2022/06/08 02:24:35;;;;;;;2.47;1.80;;;16.80;99.90;;;;;;5054073;28;20169;-76
2022/06/08 02:27:14;;;;;;;1.30;1.20;;;16.80;99.90;;;;;;5049480;28;20178;-76
2022/06/08 02:29:58;;;;;;;1.60;1.38;;;16.80;99.90;;;;;;5048499;28;20198;-76
2022/06/08 02:35:28;;;;;;;1.38;1.27;;;16.70;99.90;;;;;;5053020;28;20247;-76
2022/06/08 02:38:05;;;;;;;1.30;1.20;;;16.70;99.90;;;;;;5053241;28;20176;-77
2022/06/08 02:40:34;;;;;;;1.60;1.50;;;16.70;99.90;;;;;;5037362;28;20197;-76
2022/06/08 02:43:11;;;;;;;1.42;1.30;;;16.60;99.90;;;;;;5045429;28;20178;-75
2022/06/08 02:45:41;;;;;;;1.42;1.25;;;16.60;99.90;;;;;;5052710;28;20165;-76
2022/06/08 02:48:13;;;;;;;1.35;1.15;;;16.50;99.90;;;;;;5037467;28;20185;-77
2022/06/08 02:50:54;;;;;;;1.20;1.10;;;16.50;99.90;;;;;;5047188;28;20237;-77
2022/06/08 02:53:20;;;;;;;1.50;1.20;;;16.50;99.90;;;;;;5077022;28;20192;-77
2022/06/08 02:55:58;;;;;;;1.23;1.10;;;16.50;99.90;;;;;;5072769;28;20240;-77
2022/06/08 02:58:37;;;;;;;1.50;1.40;;;16.40;99.90;;;;;;5039991;28;20197;-77
2022/06/08 03:01:16;;;;;;;1.45;1.35;;;16.40;99.90;;;;;;5047862;28;20199;-77
2022/06/08 03:03:47;;;;;;;1.40;1.30;;;16.40;99.90;;;;;;5038218;28;20207;-77
2022/06/08 03:06:21;;;;;;;1.70;1.48;;;16.40;99.90;;;;;;5052533;28;20272;-77
2022/06/08 03:08:52;;;;;;;1.40;1.30;;;16.40;99.90;;;;;;5052885;28;20181;-77
2022/06/08 03:11:19;;;;;;;2.10;1.42;;;16.40;99.90;;;;;;5053435;28;20229;-77
2022/06/08 03:13:52;;;;;;;1.67;1.27;;;16.40;99.90;;;;;;5053060;28;20223;-77
2022/06/08 03:16:57;;;;;;;1.30;1.20;;;16.40;99.90;;;;;;5054330;28;20178;-77
2022/06/08 03:19:25;;;;;;;2.08;1.67;;;16.40;99.90;;;;;;5039899;28;20252;-77
2022/06/08 03:21:54;;;;;;;1.60;1.50;;;16.40;99.90;;;;;;5063113;28;20232;-76
2022/06/08 03:24:21;;;;;;;2.95;1.50;;;16.40;99.90;;;;;;5044389;28;20198;-76
2022/06/08 03:27:11;;;;;;;2.47;2.25;;;16.50;99.90;;;;;;5051705;28;20180;-76
2022/06/08 03:29:39;;;;;;;6.85;5.90;;;16.50;99.90;;;;;;5052916;28;20199;-76
2022/06/08 03:32:07;;;;;;;2.80;2.55;;;16.50;99.90;;;;;;5056154;28;20201;-77
2022/06/08 03:34:33;;;;;;;4.50;2.00;;;16.50;99.90;;;;;;5047716;28;20234;-77
2022/06/08 03:36:59;;;;;;;2.28;2.08;;;16.50;99.90;;;;;;5079881;28;20177;-78
2022/06/08 03:39:25;;;;;;;2.88;1.90;;;16.50;99.90;;;;;;5044454;28;20224;-78
2022/06/08 03:41:54;;;;;;;2.72;2.38;;;16.60;99.90;;;;;;5050597;28;20179;-77
2022/06/08 03:44:22;;;;;;;3.55;1.90;;;16.60;99.90;;;;;;5060343;28;20174;-76
2022/06/08 03:46:56;;;;;;;1.83;1.70;;;16.60;99.90;;;;;;5053313;28;20178;-78
2022/06/08 03:49:24;;;;;;;2.28;1.60;;;16.70;99.90;;;;;;5080649;28;20169;-77
2022/06/08 03:51:55;;;;;;;1.83;1.50;;;16.70;99.90;;;;;;5039330;28;20201;-77
2022/06/08 03:54:29;;;;;;;1.42;1.33;;;16.80;99.90;;;;;;5052576;28;20173;-77
2022/06/08 03:57:03;;;;;;;1.40;1.30;;;16.80;99.90;;;;;;5038410;28;20169;-76
2022/06/08 03:59:33;;;;;;;1.35;1.20;;;16.80;99.90;;;;;;5058884;28;20224;-77
2022/06/08 04:01:59;;;;;;;6.72;6.03;;;16.80;99.90;;;;;;5043652;28;20197;-76
2022/06/08 04:04:28;;;;;;;3.33;3.03;;;16.80;99.90;;;;;;5050291;28;20379;-76
2022/06/08 04:06:54;;;;;;;5.03;2.97;;;16.90;99.90;;;;;;5048343;28;20225;-77
2022/06/08 04:09:22;;;;;;;2.28;2.08;;;16.90;99.90;;;;;;5041905;28;20182;-77
2022/06/08 04:11:48;;;;;;;2.05;1.85;;;16.90;99.90;;;;;;5052176;28;20201;-78
2022/06/08 04:14:14;;;;;;;2.15;1.70;;;16.90;99.90;;;;;;5052565;28;20165;-78
2022/06/08 04:16:40;;;;;;;1.85;1.65;;;16.90;99.90;;;;;;5081612;28;20195;-77
2022/06/08 04:19:06;;;;;;;2.22;1.77;;;16.90;99.90;;;;;;5055946;28;20216;-77
2022/06/08 04:21:31;;;;;;;2.00;1.80;;;16.90;99.90;;;;;;5082648;28;20193;-77
2022/06/08 04:24:00;;;;;;;1.60;1.50;;;16.90;99.90;;;;;;5053094;28;20173;-77
2022/06/08 04:26:26;;;;;;;2.53;1.77;;;16.90;99.90;;;;;;5055882;28;20178;-77
2022/06/08 04:28:57;;;;;;;2.50;1.67;;;16.90;99.90;;;;;;5055976;28;20197;-77
2022/06/08 04:31:23;;;;;;;3.15;2.45;;;16.90;99.90;;;;;;5046151;28;20190;-79
2022/06/08 04:33:53;;;;;;;2.80;2.50;;;17.00;99.90;;;;;;5048094;28;20185;-78
2022/06/08 04:36:21;;;;;;;2.00;1.83;;;17.00;99.90;;;;;;5055821;28;20244;-77
2022/06/08 04:38:47;;;;;;;2.28;1.70;;;17.00;99.90;;;;;;5054840;28;20260;-77
2022/06/08 04:41:13;;;;;;;2.45;1.58;;;17.00;99.90;;;;;;5056016;28;20227;-77
2022/06/08 04:43:41;;;;;;;1.98;1.45;;;17.00;99.90;;;;;;5041923;28;20220;-76
2022/06/08 04:46:07;;;;;;;3.25;1.70;;;17.10;99.90;;;;;;5042603;28;20264;-76
2022/06/08 04:48:33;;;;;;;3.45;1.63;;;17.10;99.90;;;;;;5052400;28;20197;-78
2022/06/08 04:51:01;;;;;;;1.83;1.65;;;17.10;99.90;;;;;;5046090;28;20262;-77
2022/06/08 04:53:27;;;;;;;3.78;1.80;;;17.10;99.90;;;;;;5053530;28;20189;-75
2022/06/08 04:55:52;;;;;;;2.42;2.10;;;17.10;99.90;;;;;;5051443;28;20177;-77
2022/06/08 04:58:26;;;;;;;3.47;1.70;;;17.10;99.90;;;;;;5053540;28;20178;-76
2022/06/08 05:00:55;;;;;;;2.20;1.58;;;17.20;99.90;;;;;;5050379;28;20224;-77
2022/06/08 05:03:26;;;;;;;2.05;1.80;;;17.20;99.90;;;;;;5052144;28;20285;-77
2022/06/08 05:05:54;;;;;;;3.00;1.92;;;17.20;99.90;;;;;;5038384;28;20208;-76
2022/06/08 05:08:23;;;;;;;2.65;1.88;;;17.20;99.90;;;;;;5054193;28;20237;-78
2022/06/08 05:10:50;;;;;;;2.47;1.50;;;17.30;99.90;;;;;;5053426;28;20189;-77
2022/06/08 05:13:18;;;;;;;1.88;1.70;;;17.40;99.90;;;;;;5047218;28;20181;-77
2022/06/08 05:15:48;;;;;;;1.58;1.48;;;17.50;99.90;;;;;;5048096;28;20259;-77
2022/06/08 05:18:22;;;;;;;1.67;1.58;;;17.50;99.90;;;;;;5063766;28;20263;-77
2022/06/08 05:20:51;;;;;;;1.52;1.42;;;17.60;99.90;;;;;;5050448;28;20216;-77
2022/06/08 05:23:36;;;;;;;2.58;1.50;;;17.60;99.90;;;;;;5037066;28;20320;-76
2022/06/08 05:26:02;;;;;;;2.10;1.60;;;17.70;99.90;;;;;;5053281;28;20212;-76
2022/06/08 05:28:30;;;;;;;2.97;1.42;;;17.70;99.90;;;;;;5055315;28;20268;-75
2022/06/08 05:30:57;;;;;;;1.50;1.40;;;17.80;99.90;;;;;;5044928;28;20259;-77
2022/06/08 05:33:24;;;;;;;1.60;1.50;;;17.80;99.90;;;;;;5054578;28;20185;-74
2022/06/08 05:35:50;;;;;;;2.05;1.55;;;17.80;99.90;;;;;;5089334;28;20180;-75
2022/06/08 05:38:18;;;;;;;1.70;1.30;;;17.90;99.90;;;;;;5046166;28;20174;-76
2022/06/08 05:40:44;;;;;;;2.80;1.40;;;17.90;99.90;;;;;;5055608;28;20256;-74
2022/06/08 05:43:12;;;;;;;1.80;1.70;;;18.00;99.90;;;;;;5054605;28;20228;-74
2022/06/08 05:45:41;;;;;;;1.80;1.70;;;18.00;99.90;;;;;;5054983;28;20182;-74
2022/06/08 05:48:08;;;;;;;2.75;1.45;;;18.00;99.90;;;;;;5054750;28;20170;-74
2022/06/08 05:50:38;;;;;;;2.13;1.30;;;18.10;99.90;;;;;;5053630;28;20231;-74
2022/06/08 05:53:04;;;;;;;1.55;1.30;;;18.10;99.90;;;;;;5055014;28;20207;-75
2022/06/08 05:55:30;;;;;;;2.45;1.98;;;18.10;99.90;;;;;;5054546;28;20298;-75
2022/06/08 05:57:56;;;;;;;1.30;1.20;;;18.20;99.90;;;;;;5055056;28;20389;-75
2022/06/08 06:00:31;;;;;;;2.55;1.50;;;18.20;99.90;;;;;;5040041;28;20193;-74
2022/06/08 06:03:01;;;;;;;1.85;1.35;;;18.30;99.90;;;;;;5050214;28;20173;-73
2022/06/08 06:05:31;;;;;;;2.35;1.73;;;18.30;99.90;;;;;;5048338;28;20185;-74
2022/06/08 06:07:58;;;;;;;1.85;1.20;;;18.40;99.90;;;;;;5035197;28;20166;-74
2022/06/08 06:10:25;;;;;;;2.55;1.48;;;18.40;99.90;;;;;;5046100;28;20233;-75
2022/06/08 06:12:54;;;;;;;1.58;1.40;;;18.50;99.90;;;;;;5054929;28;20174;-74
2022/06/08 06:15:22;;;;;;;2.03;1.38;;;18.50;99.90;;;;;;5050847;28;20212;-73
2022/06/08 06:17:47;;;;;;;2.53;1.30;;;18.60;99.90;;;;;;5035113;28;20224;-74
2022/06/08 06:20:13;;;;;;;1.67;1.10;;;18.60;99.90;;;;;;5050338;28;20188;-73
2022/06/08 06:22:39;;;;;;;2.65;1.67;;;18.70;99.90;;;;;;5050611;28;20174;-74
2022/06/08 06:25:07;;;;;;;2.58;1.30;;;18.80;99.90;;;;;;5042785;28;20208;-73
2022/06/08 06:27:33;;;;;;;1.40;1.30;;;18.80;99.90;;;;;;5035428;28;20189;-74
2022/06/08 06:29:58;;;;;;;2.20;1.27;;;18.90;99.90;;;;;;5051410;28;20182;-73
2022/06/08 06:32:28;;;;;;;2.00;1.30;;;18.90;99.90;;;;;;5052571;28;20189;-74
2022/06/08 06:35:01;;;;;;;2.25;1.30;;;19.00;99.90;;;;;;5054564;28;20177;-74
2022/06/08 06:37:30;;;;;;;2.50;1.40;;;19.00;99.90;;;;;;5053232;28;20198;-73
2022/06/08 06:39:58;;;;;;;2.60;1.40;;;19.10;99.90;;;;;;5055013;28;20280;-73
2022/06/08 06:42:30;;;;;;;1.80;1.10;;;19.20;99.90;;;;;;5054323;28;20181;-73
2022/06/08 06:44:57;;;;;;;1.60;1.10;;;19.20;99.90;;;;;;5053229;28;20196;-72
2022/06/08 06:47:23;;;;;;;1.15;1.05;;;19.30;99.90;;;;;;5054173;28;20176;-73
2022/06/08 06:49:49;;;;;;;1.52;1.20;;;19.30;99.90;;;;;;5053892;28;20185;-72
2022/06/08 06:52:17;;;;;;;1.75;1.20;;;19.40;99.90;;;;;;5037939;28;20233;-73
2022/06/08 06:54:42;;;;;;;1.05;0.95;;;19.40;99.90;;;;;;5053713;28;20177;-73
2022/06/08 06:57:08;;;;;;;1.40;1.25;;;19.40;99.90;;;;;;5053311;28;20331;-72
2022/06/08 06:59:38;;;;;;;1.10;1.00;;;19.50;99.90;;;;;;5066174;28;20211;-73
2022/06/08 07:02:16;;;;;;;1.42;0.90;;;19.50;99.90;;;;;;5055603;28;20200;-72
2022/06/08 07:04:44;;;;;;;2.20;1.20;;;19.60;99.90;;;;;;5053769;28;20201;-72
2022/06/08 07:07:10;;;;;;;1.45;1.10;;;19.60;99.90;;;;;;5052858;28;20307;-73
2022/06/08 07:09:36;;;;;;;2.28;1.30;;;19.70;99.90;;;;;;5053777;28;20193;-72
2022/06/08 07:12:02;;;;;;;1.50;1.20;;;19.70;99.90;;;;;;5052849;28;20216;-73
2022/06/08 07:14:28;;;;;;;1.60;1.27;;;19.70;99.90;;;;;;5048904;28;20182;-73
2022/06/08 07:16:56;;;;;;;1.95;1.13;;;19.70;99.90;;;;;;5036752;28;20269;-72
2022/06/08 07:19:22;;;;;;;4.55;1.33;;;19.80;99.90;;;;;;5053596;28;20291;-72
2022/06/08 07:21:48;;;;;;;2.33;1.38;;;19.80;99.90;;;;;;5053641;28;20187;-72
2022/06/08 07:24:30;;;;;;;4.05;1.15;;;19.80;99.90;;;;;;5053156;28;20173;-73
2022/06/08 07:26:55;;;;;;;2.90;1.20;;;19.90;99.90;;;;;;5053687;28;20162;-73
2022/06/08 07:29:21;;;;;;;2.15;1.15;;;19.90;99.90;;;;;;5053574;28;20223;-73
2022/06/08 07:31:47;;;;;;;1.85;1.30;;;19.90;99.90;;;;;;5053570;28;20162;-72
2022/06/08 07:34:17;;;;;;;2.53;1.40;;;20.00;99.90;;;;;;5053434;28;20173;-75
2022/06/08 07:36:46;;;;;;;1.70;1.10;;;20.00;99.90;;;;;;5052988;28;20173;-73
2022/06/08 07:39:14;;;;;;;1.92;1.33;;;20.10;99.90;;;;;;5053641;28;20220;-73
2022/06/08 07:41:39;;;;;;;1.95;1.30;;;20.10;99.90;;;;;;5047679;28;20211;-73
2022/06/08 07:44:05;;;;;;;2.70;1.00;;;20.10;99.90;;;;;;5053030;28;20173;-74
2022/06/08 07:46:31;;;;;;;1.60;1.20;;;20.10;99.90;;;;;;5051136;28;20205;-73
2022/06/08 07:51:53;;;;;;;1.33;1.23;;;20.20;99.90;;;;;;5051532;28;20200;-75
2022/06/08 07:54:22;;;;;;;1.90;1.17;;;20.30;99.90;;;;;;5054337;28;20173;-76
2022/06/08 07:56:48;;;;;;;2.95;1.00;;;20.30;99.90;;;;;;5050251;28;20178;-75
2022/06/08 07:59:14;;;;;;;1.42;0.98;;;20.30;99.90;;;;;;5055560;28;20334;-74
2022/06/08 08:01:42;;;;;;;2.38;1.00;;;20.40;99.90;;;;;;5046588;28;20268;-74
2022/06/08 08:04:08;;;;;;;1.88;1.20;;;20.40;99.90;;;;;;5055214;28;20355;-74
2022/06/08 08:06:34;;;;;;;0.95;0.88;;;20.50;99.90;;;;;;5055109;28;20358;-76
2022/06/08 08:09:04;;;;;;;1.20;0.95;;;20.50;99.90;;;;;;5052785;28;20196;-74
2022/06/08 08:11:32;;;;;;;3.00;1.30;;;20.60;99.90;;;;;;5052381;28;20194;-73
2022/06/08 08:14:00;;;;;;;2.80;1.20;;;20.60;99.90;;;;;;5053687;28;20263;-76
2022/06/08 08:16:26;;;;;;;3.20;0.85;;;20.70;99.90;;;;;;5055686;28;20267;-76
2022/06/08 08:18:51;;;;;;;1.13;0.90;;;20.80;99.90;;;;;;5056035;28;20272;-74
2022/06/08 08:21:17;;;;;;;1.90;1.20;;;20.80;99.90;;;;;;5087373;28;20198;-74
2022/06/08 08:23:43;;;;;;;1.00;0.90;;;20.90;99.90;;;;;;5051227;28;20215;-75
2022/06/08 08:26:08;;;;;;;2.17;1.02;;;20.90;99.90;;;;;;5054755;28;20169;-75
2022/06/08 08:28:34;;;;;;;1.52;1.00;;;20.90;99.90;;;;;;5055694;28;20181;-76
2022/06/08 08:31:02;;;;;;;1.40;0.90;;;21.00;99.90;;;;;;5050111;28;20202;-74
2022/06/08 08:33:32;;;;;;;1.38;1.10;;;21.00;99.90;;;;;;5053547;28;20259;-75
2022/06/08 08:36:00;;;;;;;1.63;1.02;;;21.10;99.90;;;;;;5050529;28;20185;-76
2022/06/08 08:38:26;;;;;;;6.18;1.23;;;21.20;99.90;;;;;;5050449;28;20299;-75
2022/06/08 08:40:56;;;;;;;1.65;0.90;;;21.30;99.90;;;;;;5049830;28;20313;-75
2022/06/08 08:43:31;;;;;;;4.53;1.27;;;21.40;99.90;;;;;;5045845;28;20172;-77
2022/06/08 08:46:06;;;;;;;4.28;1.15;;;21.50;99.90;;;;;;5055276;28;20237;-76
2022/06/08 08:48:47;;;;;;;5.57;1.00;;;21.50;99.90;;;;;;5053203;28;20182;-76
2022/06/08 08:51:43;;;;;;;2.67;1.30;;;21.70;99.90;;;;;;5053273;28;20182;-76
2022/06/08 08:54:28;;;;;;;2.58;1.00;;;21.70;99.90;;;;;;5021278;28;20217;-77
2022/06/08 08:57:20;;;;;;;1.95;1.00;;;21.80;99.90;;;;;;5038647;28;20166;-76
2022/06/08 08:59:49;;;;;;;1.98;1.23;;;21.80;99.90;;;;;;5051912;28;20243;-76
2022/06/08 09:03:14;;;;;;;3.25;1.08;;;21.90;99.90;;;;;;5055915;28;20183;-76
2022/06/08 09:05:19;;;;;;;1.40;1.10;;;22.00;99.90;;;;;;5056797;28;20173;-75
2022/06/08 09:07:45;;;;;;;2.03;1.10;;;22.10;99.90;;;;;;5055458;28;20181;-76
2022/06/08 09:10:19;;;;;;;1.73;1.10;;;22.20;99.90;;;;;;5056109;28;20208;-77
2022/06/08 09:12:48;;;;;;;5.07;1.10;;;22.30;99.90;;;;;;5054487;28;20273;-77
2022/06/08 09:15:19;;;;;;;3.30;1.23;;;22.40;99.90;;;;;;5052123;28;20205;-77
2022/06/08 09:17:56;;;;;;;2.75;1.08;;;22.40;99.90;;;;;;5081017;28;20242;-76
2022/06/08 09:20:32;;;;;;;2.28;1.00;;;22.50;99.90;;;;;;5055909;28;20205;-76
2022/06/08 09:23:07;;;;;;;2.22;1.17;;;22.60;99.90;;;;;;5051398;28;20188;-77
2022/06/08 09:25:38;;;;;;;2.47;1.10;;;22.60;99.90;;;;;;5057448;28;20201;-78
2022/06/08 09:28:28;;;;;;;4.05;1.23;;;22.60;99.90;;;;;;5056323;28;20192;-77
2022/06/08 09:30:56;;;;;;;2.72;0.98;;;22.50;99.90;;;;;;5055572;28;20185;-75
2022/06/08 09:33:34;;;;;;;1.90;1.00;;;22.50;99.90;;;;;;5043510;28;20319;-76
2022/06/08 09:36:23;;;;;;;2.47;1.10;;;22.40;99.90;;;;;;5050177;28;20284;-76
2022/06/08 09:38:48;;;;;;;2.70;1.20;;;22.20;99.90;;;;;;5052559;28;20209;-75
2022/06/08 09:41:28;;;;;;;2.70;1.08;;;22.20;99.90;;;;;;5055164;28;20193;-78
2022/06/08 09:44:11;;;;;;;2.08;1.20;;;22.10;99.90;;;;;;5054842;28;20204;-77
2022/06/08 09:53:03;;;;;;;1.10;0.80;;;22.00;99.90;;;;;;5036543;28;20186;-73
2022/06/08 09:55:46;;;;;;;2.15;0.82;;;22.00;99.90;;;;;;5055197;28;20165;-76
2022/06/08 09:58:30;;;;;;;1.25;0.90;;;22.00;99.90;;;;;;5055103;28;20276;-74
2022/06/08 10:01:04;;;;;;;3.80;1.17;;;22.10;99.90;;;;;;5055371;28;20189;-75
2022/06/08 10:03:46;;;;;;;2.35;1.20;;;22.20;99.90;;;;;;5051064;28;20203;-73
2022/06/08 10:06:18;;;;;;;2.75;1.02;;;22.30;99.90;;;;;;5059073;28;20199;-75
2022/06/08 10:09:17;;;;;;;2.35;1.27;;;22.40;99.90;;;;;;5043644;28;20165;-75
2022/06/08 10:11:54;;;;;;;3.05;1.17;;;22.50;99.90;;;;;;5054173;28;20264;-76
2022/06/08 10:14:32;;;;;;;5.68;1.23;;;22.60;99.90;;;;;;5054276;28;20184;-77
2022/06/08 10:17:05;;;;;;;2.53;1.00;;;22.60;99.90;;;;;;5037772;28;20166;-76
2022/06/08 10:19:45;;;;;;;4.13;1.33;;;22.70;99.90;;;;;;5035697;28;20208;-77
2022/06/08 10:22:12;;;;;;;2.30;1.20;;;22.70;99.90;;;;;;5036265;28;20206;-77
2022/06/08 10:24:53;;;;;;;2.95;1.30;;;22.70;99.90;;;;;;5054756;28;20173;-74
2022/06/08 10:27:29;;;;;;;1.95;1.15;;;22.70;99.90;;;;;;5054810;28;20169;-75
2022/06/08 10:30:07;;;;;;;4.22;1.10;;;22.70;99.90;;;;;;5054174;28;20227;-75
2022/06/08 10:32:41;;;;;;;2.75;1.10;;;22.70;99.90;;;;;;5052696;28;20181;-75
2022/06/08 10:35:24;;;;;;;2.10;1.10;;;22.70;99.90;;;;;;5054580;28;20193;-76
2022/06/08 10:37:54;;;;;;;2.25;1.10;;;22.70;99.90;;;;;;5053393;28;20321;-76
2022/06/08 10:40:27;;;;;;;2.92;1.10;;;22.70;99.90;;;;;;5054799;28;20202;-76
2022/06/08 10:42:54;;;;;;;4.97;1.15;;;22.70;99.90;;;;;;5036378;28;20186;-74
2022/06/08 10:45:23;;;;;;;2.80;1.00;;;22.60;99.90;;;;;;5052969;28;20169;-75
2022/06/08 10:48:03;;;;;;;3.15;1.38;;;22.50;99.90;;;;;;5054022;28;20208;-75
2022/06/08 10:50:29;;;;;;;4.15;1.27;;;22.30;99.90;;;;;;5048724;28;20443;-76
2022/06/08 10:54:53;;;;;;;2.17;1.10;;;22.20;99.90;;;;;;5050121;28;20201;-76
2022/06/08 10:55:45;;;;;;;3.33;1.52;;;22.00;99.90;;;;;;5037850;28;20166;-75
2022/06/08 10:58:15;;;;;;;2.50;1.30;;;21.80;99.90;;;;;;5087551;28;20264;-77
2022/06/08 11:00:54;;;;;;;1.40;1.10;;;21.60;99.90;;;;;;5053438;28;20292;-75
2022/06/08 11:03:47;;;;;;;2.20;1.20;;;21.50;99.90;;;;;;5054083;28;20173;-76
2022/06/08 11:06:50;;;;;;;4.32;1.00;;;21.40;99.90;;;;;;5042084;28;20220;-77
2022/06/08 11:09:42;;;;;;;2.85;1.30;;;21.30;99.90;;;;;;5053282;28;20173;-77
2022/06/08 11:12:11;;;;;;;4.38;1.30;;;21.20;99.90;;;;;;5040967;28;20194;-77
2022/06/08 11:14:43;;;;;;;3.58;1.20;;;21.10;99.90;;;;;;5053513;28;20169;-77
2022/06/08 11:17:18;;;;;;;3.92;1.20;;;21.00;99.90;;;;;;5050915;28;20184;-77
2022/06/08 11:19:45;;;;;;;3.55;1.20;;;20.90;99.90;;;;;;5041076;28;20208;-77
2022/06/08 11:22:21;;;;;;;3.28;1.10;;;20.80;99.90;;;;;;5049956;28;20181;-75
2022/06/08 11:24:51;;;;;;;2.17;1.05;;;20.70;99.90;;;;;;5033797;28;20267;-76
2022/06/08 11:27:20;;;;;;;3.75;1.10;;;20.70;99.90;;;;;;5045388;28;20181;-76
2022/06/08 11:29:52;;;;;;;3.58;1.20;;;20.60;99.90;;;;;;5053650;28;20216;-78
2022/06/08 11:32:28;;;;;;;3.25;1.25;;;20.50;99.90;;;;;;5053051;28;20247;-77
2022/06/08 11:35:33;;;;;;;4.30;1.40;;;20.50;99.90;;;;;;5053735;28;20177;-75
2022/06/08 11:38:16;;;;;;;2.25;1.30;;;20.40;99.90;;;;;;5048239;28;20205;-77
2022/06/08 11:40:43;;;;;;;2.70;1.15;;;20.40;99.90;;;;;;5046344;28;20202;-75
2022/06/08 11:43:13;;;;;;;3.13;1.30;;;20.40;99.90;;;;;;5044806;28;20197;-74
2022/06/08 11:45:52;;;;;;;3.33;1.15;;;20.40;99.90;;;;;;5049840;28;20189;-73
2022/06/08 11:48:23;;;;;;;2.58;1.23;;;20.40;99.90;;;;;;5051866;28;20193;-75
2022/06/08 11:50:50;;;;;;;4.40;1.25;;;20.40;99.90;;;;;;5085272;28;20231;-75
2022/06/08 11:53:20;;;;;;;1.85;1.00;;;20.40;99.90;;;;;;5053232;28;20169;-74
2022/06/08 11:56:05;;;;;;;3.55;1.38;;;20.40;99.90;;;;;;5054529;28;20165;-76
2022/06/08 11:58:33;;;;;;;2.90;1.20;;;20.40;99.90;;;;;;5053251;28;20177;-78
2022/06/08 12:01:11;;;;;;;1.52;1.00;;;20.40;99.90;;;;;;5046277;28;20291;-77
2022/06/08 12:03:42;;;;;;;1.50;1.02;;;20.40;99.90;;;;;;5033446;28;20232;-77
2022/06/08 12:06:14;;;;;;;1.73;1.20;;;20.40;99.90;;;;;;5049649;28;20224;-77
2022/06/08 12:08:44;;;;;;;2.92;1.20;;;20.40;99.90;;;;;;5053460;28;20170;-77
2022/06/08 12:11:18;;;;;;;1.95;1.00;;;20.40;99.90;;;;;;5053086;28;20177;-77
2022/06/08 12:13:58;;;;;;;1.30;1.00;;;20.50;99.90;;;;;;5053289;28;20176;-77
2022/06/08 12:16:27;;;;;;;1.75;1.10;;;20.50;99.90;;;;;;5052683;28;20235;-77
2022/06/08 12:19:10;;;;;;;2.00;0.90;;;20.50;99.90;;;;;;5051670;28;20285;-78
2022/06/08 12:21:40;;;;;;;1.67;0.90;;;20.50;99.90;;;;;;5086710;28;20254;-77
2022/06/08 12:24:13;;;;;;;3.10;1.10;;;20.50;99.90;;;;;;5053635;28;20208;-77
2022/06/08 12:26:56;;;;;;;2.05;1.00;;;20.50;99.90;;;;;;5052859;28;20169;-77
2022/06/08 12:29:26;;;;;;;1.88;1.10;;;20.50;99.90;;;;;;5086980;28;20216;-77
2022/06/08 12:32:20;;;;;;;1.83;1.20;;;20.60;99.90;;;;;;5053404;28;20180;-76
2022/06/08 12:35:08;;;;;;;2.53;1.10;;;20.60;99.90;;;;;;5053859;28;20205;-74
2022/06/08 12:37:37;;;;;;;2.22;0.93;;;20.70;99.90;;;;;;5052655;28;20169;-77
2022/06/08 12:40:21;;;;;;;1.80;1.00;;;20.70;99.90;;;;;;5049190;28;20207;-75
2022/06/08 12:42:54;;;;;;;2.42;1.10;;;20.70;99.90;;;;;;5056991;28;20178;-77
2022/06/08 12:45:33;;;;;;;3.00;1.17;;;20.70;99.90;;;;;;5056001;28;20169;-76
2022/06/08 12:48:32;;;;;;;3.00;1.15;;;20.70;99.90;;;;;;5055026;28;20165;-74
2022/06/08 12:50:58;;;;;;;3.70;1.27;;;20.80;99.90;;;;;;5056130;28;20182;-78
2022/06/08 12:53:25;;;;;;;2.45;1.30;;;20.80;99.90;;;;;;5055848;28;20200;-75
2022/06/08 12:55:52;;;;;;;3.60;1.20;;;20.80;99.90;;;;;;5050445;28;20316;-76
2022/06/08 12:58:23;;;;;;;3.10;1.50;;;20.70;99.90;;;;;;5053335;28;20197;-76
2022/06/08 13:00:53;;;;;;;2.75;1.20;;;20.70;99.90;;;;;;5053951;28;20205;-76
2022/06/08 13:03:28;;;;;;;2.53;1.35;;;20.70;99.90;;;;;;5051957;28;20272;-76
2022/06/08 13:05:58;;;;;;;3.03;1.38;;;20.70;99.90;;;;;;5054124;28;20165;-75
2022/06/08 13:08:26;;;;;;;3.88;1.33;;;20.70;99.90;;;;;;5056278;28;20183;-76
2022/06/08 13:10:59;;;;;;;2.50;1.27;;;20.60;99.90;;;;;;5044724;28;20189;-76
2022/06/08 13:13:33;;;;;;;3.75;1.60;;;20.60;99.90;;;;;;5048988;28;20176;-76
2022/06/08 13:16:11;;;;;;;1.90;1.23;;;20.60;99.90;;;;;;5037806;28;20202;-76
2022/06/08 13:18:37;;;;;;;4.40;1.40;;;20.60;99.90;;;;;;5052568;28;20196;-75
2022/06/08 13:21:06;;;;;;;2.97;1.40;;;20.60;99.90;;;;;;5049120;28;20205;-76
2022/06/08 13:23:32;;;;;;;3.00;1.60;;;20.60;99.90;;;;;;5055210;28;20201;-76
2022/06/08 13:25:59;;;;;;;4.55;1.60;;;20.60;99.90;;;;;;5055051;28;20177;-75